Virgin, UT (84779)

8:43 PM MDT on May 05, 2015 (GMT -0600)
Cholla Creek | | Change Station
CLOSE
Current Station
Personal Weather Station
Location: Toquerville, UT
Elevation: 3219 ft
Nearby Weather Stations

Elev 3219 ft 37.23 °N, 113.28 °W | Updated 21 seconds ago

Overcast
Overcast
63.9 °F
Feels Like 63.9 °F
N
15.0
Wind Variable Wind from NNE
Gusts 19.9 mph

Today
High -- | Low -- °F
--% Chance of Precip.
Yesterday
High -- | Low -- °F
Precip. -- in
6:33 AM 8:25 PM
Waning Gibbous, 96% visible
Pressure 29.87 in
Visibility 10.0 miles
Clouds Overcast 6000 ft
Dew Point 45 °F
Humidity 50%
Rainfall 0.00 in
Snow Depth Not available.
UV 0.0 out of 12
Pollen 7.30 out of 12
Air Quality Not available.
Flu Activity Regional
METAR KAZC 060215Z AUTO 25008KT 10SM OVC060 20/07 A2987 RMK AO2 T01980073

More Conditions Fewer Conditions

Pressure 29.87 in
Visibility 10.0 miles
Clouds Overcast 6000 ft
Dew Point 45 °F
Humidity 50%
Rainfall 0.00 in
Snow Depth Not available.
UV 0.0 out of 12
Pollen 7.30 out of 12
Air Quality Not available.
Flu Activity Regional
METAR KAZC 060215Z AUTO 25008KT 10SM OVC060 20/07 A2987 RMK AO2 T01980073

More Conditions Fewer Conditions

Nowcast | as of 7:33 PM MDT on May 5, 2015

Scattered showers and thunderstorms will continue over portions of central and southern Utah this evening. The strongest storms at 720 PM were located in Zion National Park over kolob canyon...and along the Pine Valley Mountains. Some of these storms will produce locally heavy rain...small hail...dangerous lightning...and gusty winds. Ponding of water is also possible on area roadways...and normally dry washes may be running.

×

10-Day Weather Forecast

Almanac

Astronomy

May. 05, 2015 Rise Set
Actual Time
Civil Twilight
Nautical Twilight
Astronomical Twilight
Moon
Length of Visible Light
Length of Day
Tomorrow will be .
, % of the Moon is Illuminated

Today's Extremes

State Highs State Lows

Community

WunderPhotos

Upload Photos

1,819,049 photos uploaded!

WunderBlogs® & News

Nearby

Air Quality

  Air Quality AQ Index Pollutant
Not available.

Snow Depth

Station Depth Elevation

Earthquake Activity

City Distance Mag. Time & Date
Minimum magnitude displayed is 2.5.

Coastal Water Temperatures

Place Temperature

Stations

Nearby Weather Stations

Station Location Temp. Windchill Dew Point Humidity Wind Precip. Elev Updated Type